Аэропорт: Пашковский. Краснодар

ICAO: URKK

METAR:
2020-10-24 06:30:00
URKK 240630Z 14004MPS CAVOK 14/11 Q1019 R23L/CLRD70 NOSIG RMK QFE761
METAR:
2020-10-24 04:55:00
TAF URKK 240455Z 2406/2506 22003G08MPS 9999 SCT030